Lamerd Airport

Airport
ICAO code: 
OISR
IATA Code: 
LFM
Summary
ICAO Region: 
MID
Territory: 
Location: 
Lamerd, Fars Province
Serving: 
Lamerd
Elevation: 
1337 ft
Coordinates: 
Aerial View: 
27° 22' 21.565" N, 53° 11' 23.892" E
Metar
Observation
OISR 260700Z 30004KT CAVOK 45/02 Q1000 A2955 NOSIG
Station
Forūdgāh-e Lāmerd
Date/Time
2022-06-26 07:00:00
Wind direction
300°
Wind speed
04 kts
Lowest cloud amount
clouds and visibility OK
Temperature
45°C
Dew point
2°C
Humidity
7%
QNH
1000 hPa
Weather condition
n/a

Airport 4km north of the city of Lamerd, Iran.

Climatology

Warm Desert climate (Köppen climate classification BWh).

Runways

Designator Length Width Surface Rops
11/29 3054 45 ASP No/No
Airport map: 
Aerial View: 

SKYbrary Partners:

Safety knowledge contributed by: